Time;durP1;ratioP1;P1;durP2;ratioP2;P2;SDS_P1;SDS_P2;PMS_P1;PMS_P2;Temp;Humidity;BMP_temperature;BMP_pressure;BME280_temperature;BME280_humidity;BME280_pressure;Samples;Min_cycle;Max_cycle;Signal;HPM_P1;HPM_P2
2022/10/31 00:00:05;;;;;;;12.57;7.22;;;;;;;;;;522831;28;1286;-61
2022/10/31 00:00:20;;;;;;;11.82;7.35;;;;;;;;;;521549;28;1735;-61
2022/10/31 00:00:36;;;;;;;11.23;7.35;;;;;;;;;;524429;28;1439;-61
2022/10/31 00:00:51;;;;;;;12.87;7.47;;;;;;;;;;523922;28;1153;-61
2022/10/31 00:01:16;;;;;;;14.50;7.37;;;;;;;;;;521839;28;1106;-61
2022/10/31 00:01:35;;;;;;;12.40;7.18;;;;;;;;;;520836;28;1071;-61
2022/10/31 00:01:50;;;;;;;12.93;6.88;;;;;;;;;;521272;28;1300;-61
2022/10/31 00:02:05;;;;;;;12.90;7.07;;;;;;;;;;520430;28;1444;-61
2022/10/31 00:02:20;;;;;;;11.75;7.15;;;;;;;;;;519908;28;1033;-61
2022/10/31 00:02:36;;;;;;;10.10;6.63;;;;;;;;;;521160;28;1234;-61
2022/10/31 00:02:51;;;;;;;11.23;7.03;;;;;;;;;;520055;28;1164;-62
2022/10/31 00:03:06;;;;;;;13.17;7.57;;;;;;;;;;521147;28;1171;-61
2022/10/31 00:03:22;;;;;;;14.65;7.38;;;;;;;;;;519863;28;1134;-62
2022/10/31 00:03:37;;;;;;;15.07;7.33;;;;;;;;;;521873;28;1045;-62
2022/10/31 00:03:53;;;;;;;13.37;7.17;;;;;;;;;;522015;28;1317;-61
2022/10/31 00:04:08;;;;;;;13.73;7.25;;;;;;;;;;521486;28;1472;-61
2022/10/31 00:04:24;;;;;;;12.43;7.10;;;;;;;;;;521132;28;1148;-61
2022/10/31 00:04:39;;;;;;;12.33;7.30;;;;;;;;;;518560;28;1398;-61
2022/10/31 00:04:54;;;;;;;13.83;7.57;;;;;;;;;;520659;28;1282;-62
2022/10/31 00:05:10;;;;;;;12.43;7.05;;;;;;;;;;517716;28;1306;-61
2022/10/31 00:05:25;;;;;;;11.17;7.00;;;;;;;;;;519205;28;1262;-61
2022/10/31 00:05:42;;;;;;;10.80;6.77;;;;;;;;;;518465;28;1773;-62
2022/10/31 00:05:57;;;;;;;11.40;6.53;;;;;;;;;;517930;28;1283;-61
2022/10/31 00:06:13;;;;;;;11.48;6.82;;;;;;;;;;517178;28;1293;-62
2022/10/31 00:06:28;;;;;;;12.77;6.77;;;;;;;;;;517147;28;1132;-61
2022/10/31 00:06:43;;;;;;;12.63;6.90;;;;;;;;;;516358;28;1235;-62
2022/10/31 00:06:58;;;;;;;11.98;6.85;;;;;;;;;;517521;28;1530;-61
2022/10/31 00:07:14;;;;;;;12.77;6.77;;;;;;;;;;523133;28;1327;-62
2022/10/31 00:07:30;;;;;;;11.63;6.50;;;;;;;;;;523211;28;962;-62
2022/10/31 00:07:45;;;;;;;11.00;6.65;;;;;;;;;;521543;28;1234;-61
2022/10/31 00:08:01;;;;;;;12.03;6.90;;;;;;;;;;520858;28;1344;-61
2022/10/31 00:08:17;;;;;;;11.50;6.57;;;;;;;;;;521971;28;1149;-61
2022/10/31 00:08:32;;;;;;;11.55;6.80;;;;;;;;;;520043;28;1358;-61
2022/10/31 00:08:52;;;;;;;14.50;7.20;;;;;;;;;;521527;28;1211;-62
2022/10/31 00:09:09;;;;;;;15.85;7.13;;;;;;;;;;521519;28;1263;-61
2022/10/31 00:09:24;;;;;;;11.48;6.72;;;;;;;;;;523731;28;1105;-62
2022/10/31 00:09:39;;;;;;;12.53;6.90;;;;;;;;;;524947;28;1145;-62
2022/10/31 00:09:55;;;;;;;14.27;7.13;;;;;;;;;;522519;28;1698;-61
2022/10/31 00:10:10;;;;;;;13.10;6.93;;;;;;;;;;525993;28;1310;-61
2022/10/31 00:10:25;;;;;;;13.63;7.30;;;;;;;;;;522256;28;1332;-62
2022/10/31 00:10:42;;;;;;;11.77;7.17;;;;;;;;;;524218;28;1582;-61
2022/10/31 00:10:57;;;;;;;10.13;6.50;;;;;;;;;;524595;28;1229;-61
2022/10/31 00:11:13;;;;;;;10.90;6.40;;;;;;;;;;524023;28;1186;-61
2022/10/31 00:11:28;;;;;;;12.10;6.33;;;;;;;;;;523102;28;1157;-61
2022/10/31 00:11:43;;;;;;;12.82;6.70;;;;;;;;;;523755;28;1145;-61
2022/10/31 00:11:59;;;;;;;12.00;6.97;;;;;;;;;;523424;28;1399;-61
2022/10/31 00:12:14;;;;;;;12.47;7.07;;;;;;;;;;524077;28;1049;-61
2022/10/31 00:12:29;;;;;;;12.73;7.00;;;;;;;;;;525143;28;1089;-61
2022/10/31 00:12:44;;;;;;;12.50;6.70;;;;;;;;;;524069;28;1199;-61
2022/10/31 00:13:00;;;;;;;11.53;6.70;;;;;;;;;;525050;28;1208;-62
2022/10/31 00:13:16;;;;;;;11.30;6.83;;;;;;;;;;522327;28;1233;-61
2022/10/31 00:13:31;;;;;;;13.88;6.90;;;;;;;;;;523562;28;1422;-61
2022/10/31 00:13:47;;;;;;;14.87;6.90;;;;;;;;;;523470;28;1403;-61
2022/10/31 00:14:02;;;;;;;11.63;6.80;;;;;;;;;;522262;28;1917;-61
2022/10/31 00:14:17;;;;;;;12.20;7.07;;;;;;;;;;523106;28;1118;-61
2022/10/31 00:14:33;;;;;;;14.60;7.30;;;;;;;;;;521327;28;1344;-61
2022/10/31 00:14:48;;;;;;;14.50;7.20;;;;;;;;;;520427;28;1587;-62
2022/10/31 00:15:03;;;;;;;13.07;7.35;;;;;;;;;;521861;28;1383;-61
2022/10/31 00:15:19;;;;;;;11.43;7.33;;;;;;;;;;519383;28;1243;-61
2022/10/31 00:15:35;;;;;;;10.88;6.93;;;;;;;;;;516239;28;1146;-61
2022/10/31 00:15:51;;;;;;;10.95;6.82;;;;;;;;;;519274;28;1162;-61
2022/10/31 00:16:13;;;;;;;12.32;6.93;;;;;;;;;;519108;28;970;-61
2022/10/31 00:16:29;;;;;;;14.43;7.22;;;;;;;;;;519483;28;1142;-63
2022/10/31 00:16:44;;;;;;;12.93;7.13;;;;;;;;;;518229;28;1063;-62
2022/10/31 00:17:00;;;;;;;13.53;6.90;;;;;;;;;;520437;28;1188;-61
2022/10/31 00:17:15;;;;;;;14.57;6.88;;;;;;;;;;523223;28;1188;-61
2022/10/31 00:17:30;;;;;;;14.17;7.20;;;;;;;;;;524964;28;1122;-61
2022/10/31 00:17:45;;;;;;;13.33;7.23;;;;;;;;;;524455;28;1157;-61
2022/10/31 00:18:01;;;;;;;11.50;7.20;;;;;;;;;;522063;28;1442;-61
2022/10/31 00:18:17;;;;;;;12.55;7.50;;;;;;;;;;522916;28;1152;-61
2022/10/31 00:18:32;;;;;;;13.63;7.20;;;;;;;;;;523145;28;1147;-61
2022/10/31 00:18:49;;;;;;;11.97;7.00;;;;;;;;;;524788;28;1240;-61
2022/10/31 00:19:06;;;;;;;12.20;7.10;;;;;;;;;;523239;28;1106;-61
2022/10/31 00:19:21;;;;;;;14.98;7.25;;;;;;;;;;521040;28;1373;-61
2022/10/31 00:19:37;;;;;;;15.63;7.23;;;;;;;;;;522094;28;1118;-61
2022/10/31 00:19:52;;;;;;;13.65;7.18;;;;;;;;;;522213;28;1042;-61
2022/10/31 00:20:08;;;;;;;12.07;7.00;;;;;;;;;;525626;28;1089;-62
2022/10/31 00:20:23;;;;;;;13.32;7.15;;;;;;;;;;524656;28;1289;-61
2022/10/31 00:20:39;;;;;;;15.40;7.70;;;;;;;;;;519854;28;1365;-61
2022/10/31 00:21:01;;;;;;;13.07;7.47;;;;;;;;;;519981;28;1224;-61
2022/10/31 00:21:17;;;;;;;12.93;7.20;;;;;;;;;;522221;28;1144;-61
2022/10/31 00:21:33;;;;;;;13.07;7.35;;;;;;;;;;522192;28;1501;-62
2022/10/31 00:21:51;;;;;;;11.93;7.07;;;;;;;;;;523277;28;958;-61
2022/10/31 00:22:06;;;;;;;10.57;6.68;;;;;;;;;;520963;28;1472;-61
2022/10/31 00:22:21;;;;;;;11.30;6.43;;;;;;;;;;522502;28;1159;-61
2022/10/31 00:22:37;;;;;;;13.23;6.72;;;;;;;;;;523666;28;1051;-61
2022/10/31 00:22:52;;;;;;;14.87;7.10;;;;;;;;;;520586;28;1291;-61
2022/10/31 00:23:08;;;;;;;14.33;6.97;;;;;;;;;;521401;28;1090;-61
2022/10/31 00:23:24;;;;;;;13.45;7.10;;;;;;;;;;518837;28;1154;-62
2022/10/31 00:23:39;;;;;;;14.37;7.40;;;;;;;;;;517866;28;1083;-61
2022/10/31 00:23:54;;;;;;;13.57;7.00;;;;;;;;;;519263;28;1165;-61
2022/10/31 00:24:10;;;;;;;12.20;6.90;;;;;;;;;;519382;28;1118;-61
2022/10/31 00:24:25;;;;;;;13.80;7.00;;;;;;;;;;517855;28;1336;-61
2022/10/31 00:24:41;;;;;;;13.23;6.97;;;;;;;;;;520450;28;1222;-61
2022/10/31 00:24:56;;;;;;;13.93;6.80;;;;;;;;;;519004;28;1294;-62
2022/10/31 00:25:11;;;;;;;13.90;6.80;;;;;;;;;;517591;28;1178;-61
2022/10/31 00:25:28;;;;;;;11.32;6.75;;;;;;;;;;519855;28;1067;-61
2022/10/31 00:25:43;;;;;;;12.30;6.65;;;;;;;;;;518759;28;1230;-62
2022/10/31 00:26:03;;;;;;;13.10;6.67;;;;;;;;;;521997;28;1058;-62
2022/10/31 00:26:19;;;;;;;14.90;7.00;;;;;;;;;;520123;28;1166;-61
2022/10/31 00:26:34;;;;;;;13.25;7.03;;;;;;;;;;519926;28;1709;-61
2022/10/31 00:26:49;;;;;;;11.43;7.20;;;;;;;;;;520273;28;1556;-61
2022/10/31 00:27:04;;;;;;;13.23;7.15;;;;;;;;;;523347;28;1145;-61
2022/10/31 00:27:20;;;;;;;12.70;6.70;;;;;;;;;;519202;28;1282;-61
2022/10/31 00:27:35;;;;;;;11.40;6.50;;;;;;;;;;515393;28;1384;-61
2022/10/31 00:27:50;;;;;;;12.53;6.50;;;;;;;;;;518045;28;1199;-61
2022/10/31 00:28:07;;;;;;;12.35;6.65;;;;;;;;;;518757;28;1505;-61
2022/10/31 00:28:22;;;;;;;11.55;6.85;;;;;;;;;;518857;28;1134;-61
2022/10/31 00:28:38;;;;;;;11.15;6.65;;;;;;;;;;519170;28;1121;-61
2022/10/31 00:28:53;;;;;;;10.83;6.63;;;;;;;;;;520172;28;1050;-61
2022/10/31 00:29:09;;;;;;;13.93;6.70;;;;;;;;;;522053;28;1170;-61
2022/10/31 00:29:25;;;;;;;18.35;7.00;;;;;;;;;;524132;28;1414;-61
2022/10/31 00:29:40;;;;;;;15.93;6.90;;;;;;;;;;522202;28;1082;-61
2022/10/31 00:29:55;;;;;;;12.53;6.60;;;;;;;;;;522627;28;1259;-61
2022/10/31 00:30:11;;;;;;;13.32;6.80;;;;;;;;;;522317;28;1149;-61
2022/10/31 00:30:26;;;;;;;13.43;6.77;;;;;;;;;;521349;28;1066;-61
2022/10/31 00:30:41;;;;;;;13.17;6.60;;;;;;;;;;522826;28;1065;-62
2022/10/31 00:31:05;;;;;;;16.57;6.67;;;;;;;;;;519679;28;1304;-61
2022/10/31 00:31:20;;;;;;;13.48;6.70;;;;;;;;;;522969;28;1165;-61
2022/10/31 00:31:35;;;;;;;12.82;6.70;;;;;;;;;;520125;28;1118;-61
2022/10/31 00:31:52;;;;;;;13.87;6.60;;;;;;;;;;521251;28;1049;-61
2022/10/31 00:32:07;;;;;;;12.95;6.43;;;;;;;;;;523759;28;1129;-62
2022/10/31 00:32:22;;;;;;;12.02;6.47;;;;;;;;;;523492;28;1137;-61
2022/10/31 00:32:38;;;;;;;12.43;6.57;;;;;;;;;;519908;28;1077;-62
2022/10/31 00:32:53;;;;;;;12.63;6.40;;;;;;;;;;522736;28;981;-61
2022/10/31 00:33:08;;;;;;;14.30;6.60;;;;;;;;;;524392;28;1203;-62
2022/10/31 00:33:23;;;;;;;14.27;6.80;;;;;;;;;;523519;28;1062;-62
2022/10/31 00:33:40;;;;;;;13.83;6.77;;;;;;;;;;525481;28;1076;-62
2022/10/31 00:33:55;;;;;;;13.10;6.55;;;;;;;;;;524814;28;1209;-61
2022/10/31 00:34:10;;;;;;;12.63;6.23;;;;;;;;;;524563;28;1939;-61
2022/10/31 00:34:26;;;;;;;13.00;6.73;;;;;;;;;;525467;28;1179;-62
2022/10/31 00:34:41;;;;;;;14.17;7.10;;;;;;;;;;524038;28;1081;-62
2022/10/31 00:34:56;;;;;;;12.95;6.78;;;;;;;;;;523410;28;1050;-61
2022/10/31 00:35:11;;;;;;;12.87;6.67;;;;;;;;;;523298;28;1320;-61
2022/10/31 00:35:27;;;;;;;17.17;6.77;;;;;;;;;;524685;28;1778;-61
2022/10/31 00:35:42;;;;;;;15.87;6.83;;;;;;;;;;522019;28;1322;-61
2022/10/31 00:35:57;;;;;;;13.45;7.13;;;;;;;;;;523134;28;1247;-61
2022/10/31 00:36:15;;;;;;;13.20;6.97;;;;;;;;;;520768;28;1102;-61
2022/10/31 00:36:30;;;;;;;10.82;6.47;;;;;;;;;;522140;28;1082;-62
2022/10/31 00:36:46;;;;;;;12.87;6.60;;;;;;;;;;523238;28;1078;-61
2022/10/31 00:37:01;;;;;;;14.57;6.93;;;;;;;;;;519589;28;1357;-62
2022/10/31 00:37:16;;;;;;;13.20;7.10;;;;;;;;;;518035;28;994;-61
2022/10/31 00:37:31;;;;;;;13.30;6.97;;;;;;;;;;519944;28;1075;-61
2022/10/31 00:37:47;;;;;;;15.47;6.90;;;;;;;;;;524044;28;1125;-61
2022/10/31 00:38:02;;;;;;;14.13;6.77;;;;;;;;;;521506;28;1414;-61
2022/10/31 00:38:17;;;;;;;13.00;6.50;;;;;;;;;;524621;28;1365;-61
2022/10/31 00:38:33;;;;;;;13.27;6.67;;;;;;;;;;522983;28;1085;-61
2022/10/31 00:38:48;;;;;;;13.53;6.93;;;;;;;;;;521485;28;1375;-62
2022/10/31 00:39:03;;;;;;;14.80;6.85;;;;;;;;;;522920;28;1254;-61
2022/10/31 00:39:18;;;;;;;12.87;6.70;;;;;;;;;;523397;28;1290;-61
2022/10/31 00:39:34;;;;;;;11.97;6.90;;;;;;;;;;519698;28;1125;-61
2022/10/31 00:39:49;;;;;;;11.50;6.80;;;;;;;;;;518957;28;1489;-61
2022/10/31 00:40:05;;;;;;;10.05;6.35;;;;;;;;;;521740;28;1208;-61
2022/10/31 00:40:20;;;;;;;12.02;6.20;;;;;;;;;;522453;28;1480;-61
2022/10/31 00:40:35;;;;;;;14.20;6.30;;;;;;;;;;521677;28;1085;-62
2022/10/31 00:40:51;;;;;;;13.53;6.40;;;;;;;;;;518763;28;1157;-62
2022/10/31 00:41:06;;;;;;;12.70;6.53;;;;;;;;;;521162;28;1222;-61
2022/10/31 00:41:21;;;;;;;12.67;6.70;;;;;;;;;;521755;28;1089;-61
2022/10/31 00:41:37;;;;;;;11.80;6.50;;;;;;;;;;523756;28;1145;-61
2022/10/31 00:41:52;;;;;;;12.02;6.38;;;;;;;;;;523212;28;1117;-61
2022/10/31 00:42:07;;;;;;;12.87;6.60;;;;;;;;;;522776;28;1076;-61
2022/10/31 00:42:23;;;;;;;10.70;6.37;;;;;;;;;;525558;28;1151;-61
2022/10/31 00:42:39;;;;;;;11.77;6.53;;;;;;;;;;522556;28;1186;-61
2022/10/31 00:42:54;;;;;;;12.82;6.95;;;;;;;;;;523337;28;1077;-61
2022/10/31 00:43:10;;;;;;;11.83;6.63;;;;;;;;;;520840;28;1198;-62
2022/10/31 00:43:25;;;;;;;12.57;6.53;;;;;;;;;;523550;28;1049;-61
2022/10/31 00:43:41;;;;;;;11.70;6.67;;;;;;;;;;523038;28;1439;-61
2022/10/31 00:43:57;;;;;;;9.88;6.60;;;;;;;;;;522854;28;1093;-61
2022/10/31 00:44:12;;;;;;;9.57;6.40;;;;;;;;;;520193;28;1157;-62
2022/10/31 00:44:27;;;;;;;9.97;6.27;;;;;;;;;;519031;28;1424;-61
2022/10/31 00:44:43;;;;;;;9.33;6.13;;;;;;;;;;519116;28;1247;-61
2022/10/31 00:44:58;;;;;;;9.43;6.18;;;;;;;;;;521160;28;1123;-61
2022/10/31 00:45:13;;;;;;;11.37;6.43;;;;;;;;;;519930;28;1386;-61
2022/10/31 00:45:28;;;;;;;11.37;6.47;;;;;;;;;;518946;28;1102;-61
2022/10/31 00:45:44;;;;;;;10.70;6.20;;;;;;;;;;520340;28;1053;-61
2022/10/31 00:45:59;;;;;;;11.73;6.22;;;;;;;;;;521274;28;1231;-61
2022/10/31 00:46:14;;;;;;;11.83;6.30;;;;;;;;;;522718;28;1500;-61
2022/10/31 00:46:29;;;;;;;9.90;6.07;;;;;;;;;;525380;28;1193;-62
2022/10/31 00:46:45;;;;;;;9.30;5.80;;;;;;;;;;520974;28;1190;-61
2022/10/31 00:47:00;;;;;;;12.83;6.37;;;;;;;;;;523469;28;1169;-62
2022/10/31 00:47:15;;;;;;;13.90;6.93;;;;;;;;;;524244;28;1242;-61
2022/10/31 00:47:30;;;;;;;12.23;6.70;;;;;;;;;;524229;28;1500;-61
2022/10/31 00:47:46;;;;;;;13.00;6.63;;;;;;;;;;524364;28;1070;-61
2022/10/31 00:48:01;;;;;;;15.27;7.00;;;;;;;;;;523135;28;1219;-61
2022/10/31 00:48:16;;;;;;;18.10;7.00;;;;;;;;;;525026;28;1199;-61
2022/10/31 00:48:32;;;;;;;17.00;6.97;;;;;;;;;;523915;28;1149;-61
2022/10/31 00:48:47;;;;;;;12.90;6.80;;;;;;;;;;527259;28;1033;-62
2022/10/31 00:49:02;;;;;;;12.00;6.70;;;;;;;;;;524919;28;1391;-61
2022/10/31 00:49:17;;;;;;;12.03;6.60;;;;;;;;;;523529;28;1229;-61
2022/10/31 00:49:33;;;;;;;10.70;6.43;;;;;;;;;;527737;27;1155;-61
2022/10/31 00:49:48;;;;;;;12.47;6.60;;;;;;;;;;528802;27;1144;-62
2022/10/31 00:50:07;;;;;;;13.77;6.60;;;;;;;;;;526159;28;1246;-61
2022/10/31 00:50:22;;;;;;;13.63;6.80;;;;;;;;;;525577;28;1017;-61
2022/10/31 00:50:38;;;;;;;14.97;6.90;;;;;;;;;;526735;28;1297;-61
2022/10/31 00:50:53;;;;;;;12.85;6.72;;;;;;;;;;525775;28;1129;-61
2022/10/31 00:51:09;;;;;;;12.32;6.70;;;;;;;;;;525263;28;1524;-61
2022/10/31 00:51:24;;;;;;;13.60;6.80;;;;;;;;;;521144;28;1215;-61
2022/10/31 00:51:40;;;;;;;11.90;6.47;;;;;;;;;;523179;28;1289;-62
2022/10/31 00:51:55;;;;;;;10.87;6.30;;;;;;;;;;524412;28;1109;-61
2022/10/31 00:52:10;;;;;;;14.13;7.07;;;;;;;;;;524715;28;1198;-61
2022/10/31 00:52:25;;;;;;;15.83;7.43;;;;;;;;;;524171;28;1031;-61
2022/10/31 00:52:41;;;;;;;13.27;7.17;;;;;;;;;;523390;28;1034;-61
2022/10/31 00:52:57;;;;;;;12.27;6.80;;;;;;;;;;524974;28;1158;-61
2022/10/31 00:53:13;;;;;;;10.82;6.70;;;;;;;;;;522281;28;1341;-61
2022/10/31 00:53:28;;;;;;;9.80;6.77;;;;;;;;;;520596;28;1018;-61
2022/10/31 00:53:43;;;;;;;10.53;6.70;;;;;;;;;;519422;28;1154;-61
2022/10/31 00:53:58;;;;;;;10.77;6.50;;;;;;;;;;521763;28;1268;-61
2022/10/31 00:54:13;;;;;;;10.50;6.30;;;;;;;;;;523809;28;1914;-61
2022/10/31 00:54:30;;;;;;;11.30;6.60;;;;;;;;;;522050;28;1355;-62
2022/10/31 00:54:45;;;;;;;11.93;6.82;;;;;;;;;;519706;28;1000;-61
2022/10/31 00:55:01;;;;;;;11.53;7.20;;;;;;;;;;521696;28;1166;-61
2022/10/31 00:55:16;;;;;;;11.57;7.30;;;;;;;;;;522751;28;1141;-61
2022/10/31 00:55:32;;;;;;;12.30;6.87;;;;;;;;;;522357;28;1341;-61
2022/10/31 00:55:47;;;;;;;12.30;6.55;;;;;;;;;;522077;28;1105;-61
2022/10/31 00:56:03;;;;;;;13.00;6.70;;;;;;;;;;521683;28;1088;-61
2022/10/31 00:56:18;;;;;;;12.53;6.63;;;;;;;;;;524226;28;1078;-61
2022/10/31 00:56:34;;;;;;;11.18;6.38;;;;;;;;;;523269;28;1496;-61
2022/10/31 00:56:49;;;;;;;11.37;6.77;;;;;;;;;;523329;28;1160;-61
2022/10/31 00:57:04;;;;;;;10.77;6.87;;;;;;;;;;523076;28;1484;-61
2022/10/31 00:57:19;;;;;;;9.50;6.40;;;;;;;;;;520215;28;1176;-61
2022/10/31 00:57:34;;;;;;;10.35;6.35;;;;;;;;;;524455;28;1157;-61
2022/10/31 00:57:50;;;;;;;12.67;7.10;;;;;;;;;;523806;28;1109;-61
2022/10/31 00:58:05;;;;;;;13.20;7.20;;;;;;;;;;521512;28;1448;-61
2022/10/31 00:58:20;;;;;;;12.80;7.13;;;;;;;;;;518820;28;1322;-61
2022/10/31 00:58:36;;;;;;;11.63;7.40;;;;;;;;;;521302;28;1090;-61
2022/10/31 00:58:51;;;;;;;12.53;7.50;;;;;;;;;;519735;28;1483;-62
2022/10/31 00:59:06;;;;;;;14.27;7.63;;;;;;;;;;521276;28;1113;-61
2022/10/31 00:59:21;;;;;;;15.40;8.07;;;;;;;;;;523333;28;1133;-62
2022/10/31 00:59:37;;;;;;;15.20;8.43;;;;;;;;;;520811;28;1136;-61
2022/10/31 00:59:52;;;;;;;13.77;8.43;;;;;;;;;;519729;28;1186;-61
2022/10/31 01:00:08;;;;;;;16.10;8.88;;;;;;;;;;518373;28;1231;-61
2022/10/31 01:00:24;;;;;;;16.05;9.05;;;;;;;;;;522889;28;1094;-61
2022/10/31 01:00:39;;;;;;;15.03;9.20;;;;;;;;;;517979;28;1094;-61
2022/10/31 01:00:54;;;;;;;16.67;9.35;;;;;;;;;;519011;28;1438;-61
2022/10/31 01:01:10;;;;;;;19.33;9.37;;;;;;;;;;520599;28;1327;-62
2022/10/31 01:01:25;;;;;;;17.80;9.13;;;;;;;;;;518818;28;1290;-61
2022/10/31 01:01:40;;;;;;;13.98;8.98;;;;;;;;;;520298;28;1492;-61
2022/10/31 01:01:56;;;;;;;16.47;9.20;;;;;;;;;;519545;28;1176;-62
2022/10/31 01:02:11;;;;;;;18.50;9.53;;;;;;;;;;524949;28;1144;-61
2022/10/31 01:02:26;;;;;;;18.40;9.70;;;;;;;;;;523282;28;1122;-61
2022/10/31 01:02:41;;;;;;;16.83;9.45;;;;;;;;;;521332;28;1128;-61
2022/10/31 01:02:57;;;;;;;13.20;8.87;;;;;;;;;;523489;28;1097;-61
2022/10/31 01:03:12;;;;;;;11.53;8.83;;;;;;;;;;521431;28;1180;-62
2022/10/31 01:03:30;;;;;;;14.47;9.17;;;;;;;;;;521226;28;2026;-61
2022/10/31 01:03:45;;;;;;;17.13;9.25;;;;;;;;;;524049;28;1140;-62
2022/10/31 01:04:00;;;;;;;16.27;9.50;;;;;;;;;;524434;28;1149;-61
2022/10/31 01:04:16;;;;;;;16.20;9.73;;;;;;;;;;522058;28;1010;-62
2022/10/31 01:04:31;;;;;;;15.60;9.50;;;;;;;;;;523894;28;1145;-61
2022/10/31 01:04:46;;;;;;;14.73;9.55;;;;;;;;;;525487;28;1125;-61
2022/10/31 01:05:01;;;;;;;17.47;9.90;;;;;;;;;;524789;28;1411;-62
2022/10/31 01:05:17;;;;;;;18.13;10.00;;;;;;;;;;520236;28;1190;-61
2022/10/31 01:05:32;;;;;;;15.98;10.20;;;;;;;;;;518823;28;1386;-62
2022/10/31 01:06:03;;;;;;;16.33;10.60;;;;;;;;;;519416;28;1094;-62
2022/10/31 01:06:19;;;;;;;17.48;10.65;;;;;;;;;;518912;28;1068;-62
2022/10/31 01:06:34;;;;;;;17.87;10.63;;;;;;;;;;518242;28;1261;-61
2022/10/31 01:06:49;;;;;;;16.88;10.68;;;;;;;;;;519559;28;1118;-62
2022/10/31 01:07:04;;;;;;;16.93;10.63;;;;;;;;;;521503;28;1196;-61
2022/10/31 01:07:20;;;;;;;18.83;10.60;;;;;;;;;;523407;28;1509;-62
2022/10/31 01:07:36;;;;;;;17.57;10.30;;;;;;;;;;524389;28;2192;-61
2022/10/31 01:07:51;;;;;;;16.08;10.65;;;;;;;;;;522983;28;1127;-61
2022/10/31 01:08:07;;;;;;;18.53;10.83;;;;;;;;;;520155;28;1409;-61
2022/10/31 01:08:22;;;;;;;18.43;10.53;;;;;;;;;;522751;28;1419;-62
2022/10/31 01:08:38;;;;;;;16.67;10.50;;;;;;;;;;524932;28;1258;-62
2022/10/31 01:08:53;;;;;;;14.85;10.32;;;;;;;;;;521243;28;1177;-60
2022/10/31 01:09:08;;;;;;;13.60;10.00;;;;;;;;;;525756;28;1136;-62
2022/10/31 01:09:23;;;;;;;16.00;10.03;;;;;;;;;;523516;28;1183;-61
2022/10/31 01:09:39;;;;;;;20.57;10.63;;;;;;;;;;519637;28;1395;-61
2022/10/31 01:09:54;;;;;;;19.92;10.88;;;;;;;;;;519857;28;1038;-61
2022/10/31 01:10:10;;;;;;;17.97;10.70;;;;;;;;;;517550;28;1162;-61
2022/10/31 01:10:25;;;;;;;16.63;10.30;;;;;;;;;;522452;28;1132;-61
2022/10/31 01:10:41;;;;;;;15.07;9.73;;;;;;;;;;518006;28;1334;-61
2022/10/31 01:11:00;;;;;;;16.17;9.73;;;;;;;;;;519080;28;1065;-61
2022/10/31 01:11:21;;;;;;;15.23;9.60;;;;;;;;;;520031;28;1262;-61
2022/10/31 01:11:36;;;;;;;17.58;9.75;;;;;;;;;;523498;28;1165;-61
2022/10/31 01:11:51;;;;;;;15.90;9.47;;;;;;;;;;523379;28;1164;-62
2022/10/31 01:12:07;;;;;;;15.77;9.47;;;;;;;;;;525243;28;1117;-62
2022/10/31 01:12:23;;;;;;;16.27;9.45;;;;;;;;;;524237;28;1097;-61
2022/10/31 01:12:40;;;;;;;15.57;9.63;;;;;;;;;;525879;28;1236;-62
2022/10/31 01:12:55;;;;;;;15.30;9.90;;;;;;;;;;525973;28;986;-61
2022/10/31 01:13:10;;;;;;;15.03;9.70;;;;;;;;;;528747;27;1100;-61
2022/10/31 01:13:25;;;;;;;13.30;9.47;;;;;;;;;;528201;27;1089;-61
2022/10/31 01:13:41;;;;;;;13.13;8.90;;;;;;;;;;526994;28;1372;-61
2022/10/31 01:13:57;;;;;;;13.65;8.32;;;;;;;;;;523843;28;1435;-61
2022/10/31 01:14:12;;;;;;;13.53;8.30;;;;;;;;;;527419;28;1908;-61
2022/10/31 01:14:27;;;;;;;13.53;8.40;;;;;;;;;;524217;28;1371;-61
2022/10/31 01:14:44;;;;;;;13.80;8.77;;;;;;;;;;525049;28;1153;-61
2022/10/31 01:14:59;;;;;;;14.82;9.20;;;;;;;;;;522060;28;1249;-61
2022/10/31 01:15:21;;;;;;;15.00;9.05;;;;;;;;;;521674;28;1253;-61
2022/10/31 01:15:36;;;;;;;13.20;8.32;;;;;;;;;;521222;28;1935;-62
2022/10/31 01:15:56;;;;;;;14.13;9.13;;;;;;;;;;521438;28;1122;-62
2022/10/31 01:16:14;;;;;;;13.57;9.20;;;;;;;;;;520239;28;1089;-61
2022/10/31 01:16:29;;;;;;;12.65;8.77;;;;;;;;;;521553;28;1380;-61
2022/10/31 01:16:44;;;;;;;14.07;8.87;;;;;;;;;;522737;28;1168;-61
2022/10/31 01:17:00;;;;;;;14.77;8.52;;;;;;;;;;520071;28;1402;-62
2022/10/31 01:17:15;;;;;;;14.80;8.40;;;;;;;;;;522238;28;1214;-61
2022/10/31 01:17:30;;;;;;;14.90;8.57;;;;;;;;;;521886;28;1169;-61
2022/10/31 01:17:47;;;;;;;14.40;8.40;;;;;;;;;;521203;28;1320;-61
2022/10/31 01:18:02;;;;;;;14.75;8.68;;;;;;;;;;520944;28;1234;-61
2022/10/31 01:18:17;;;;;;;16.30;9.13;;;;;;;;;;519241;28;1170;-62
2022/10/31 01:18:33;;;;;;;15.67;8.57;;;;;;;;;;521274;28;1316;-61
2022/10/31 01:18:49;;;;;;;13.45;8.07;;;;;;;;;;518776;28;1353;-61
2022/10/31 01:19:04;;;;;;;13.77;8.50;;;;;;;;;;522072;28;1157;-61
2022/10/31 01:19:20;;;;;;;12.57;8.60;;;;;;;;;;522482;28;1168;-61
2022/10/31 01:19:35;;;;;;;12.60;8.20;;;;;;;;;;518272;28;1521;-61
2022/10/31 01:19:50;;;;;;;13.33;8.37;;;;;;;;;;517967;28;1201;-61
2022/10/31 01:20:08;;;;;;;12.43;8.50;;;;;;;;;;517487;28;1193;-61
2022/10/31 01:20:23;;;;;;;13.10;8.48;;;;;;;;;;520976;28;1423;-61
2022/10/31 01:20:38;;;;;;;13.57;8.53;;;;;;;;;;516425;28;1405;-62
2022/10/31 01:21:08;;;;;;;13.27;8.37;;;;;;;;;;519675;28;1189;-61
2022/10/31 01:21:27;;;;;;;16.70;8.70;;;;;;;;;;521316;28;1373;-61
2022/10/31 01:21:42;;;;;;;14.80;8.82;;;;;;;;;;521002;28;1238;-61
2022/10/31 01:21:57;;;;;;;16.67;8.90;;;;;;;;;;522100;28;1180;-61
2022/10/31 01:22:12;;;;;;;16.73;9.02;;;;;;;;;;523252;28;1197;-61
2022/10/31 01:22:28;;;;;;;15.87;8.77;;;;;;;;;;524116;28;1196;-61
2022/10/31 01:22:43;;;;;;;15.70;8.37;;;;;;;;;;525943;28;1202;-62
2022/10/31 01:22:58;;;;;;;15.60;8.30;;;;;;;;;;525446;28;1199;-62
2022/10/31 01:23:13;;;;;;;15.57;8.30;;;;;;;;;;521972;28;1406;-61
2022/10/31 01:23:29;;;;;;;13.00;7.93;;;;;;;;;;522266;28;1435;-61
2022/10/31 01:23:45;;;;;;;10.65;7.72;;;;;;;;;;522068;28;1379;-62
2022/10/31 01:24:03;;;;;;;12.30;8.13;;;;;;;;;;523456;28;978;-62
2022/10/31 01:24:19;;;;;;;14.45;8.43;;;;;;;;;;522470;28;1552;-62
2022/10/31 01:24:34;;;;;;;14.80;8.53;;;;;;;;;;523348;28;1316;-61
2022/10/31 01:24:49;;;;;;;14.30;8.50;;;;;;;;;;523067;28;1241;-61
2022/10/31 01:25:05;;;;;;;15.32;8.30;;;;;;;;;;523240;28;1377;-61
2022/10/31 01:25:20;;;;;;;15.65;8.27;;;;;;;;;;522274;28;1306;-62
2022/10/31 01:25:36;;;;;;;13.33;7.93;;;;;;;;;;525477;28;1077;-61
2022/10/31 01:26:08;;;;;;;13.57;7.90;;;;;;;;;;524559;28;1112;-62
2022/10/31 01:26:29;;;;;;;14.82;8.30;;;;;;;;;;523427;28;1092;-61
2022/10/31 01:26:45;;;;;;;15.13;8.30;;;;;;;;;;524508;28;1003;-61
2022/10/31 01:27:00;;;;;;;14.90;8.50;;;;;;;;;;522065;28;1410;-61
2022/10/31 01:27:15;;;;;;;13.73;8.13;;;;;;;;;;523160;28;966;-62
2022/10/31 01:27:31;;;;;;;12.65;7.28;;;;;;;;;;524621;28;1113;-61
2022/10/31 01:27:46;;;;;;;12.05;7.10;;;;;;;;;;522797;28;1584;-61
2022/10/31 01:28:02;;;;;;;12.87;7.53;;;;;;;;;;522845;28;1170;-61
2022/10/31 01:28:17;;;;;;;12.30;7.37;;;;;;;;;;523000;28;1138;-61
2022/10/31 01:28:34;;;;;;;12.73;7.28;;;;;;;;;;524048;28;1013;-61
2022/10/31 01:29:15;;;;;;;14.68;7.78;;;;;;;;;;524322;28;1144;-61
2022/10/31 01:29:31;;;;;;;14.35;8.32;;;;;;;;;;522312;28;1258;-61
2022/10/31 01:29:46;;;;;;;16.37;8.40;;;;;;;;;;519793;28;1432;-61
2022/10/31 01:30:01;;;;;;;17.02;8.40;;;;;;;;;;523762;28;1169;-61
2022/10/31 01:30:17;;;;;;;13.57;8.27;;;;;;;;;;522133;28;1119;-62
2022/10/31 01:30:32;;;;;;;12.50;8.20;;;;;;;;;;521603;28;1317;-61
2022/10/31 01:30:47;;;;;;;14.45;8.30;;;;;;;;;;519185;28;1149;-62
2022/10/31 01:31:05;;;;;;;15.93;8.20;;;;;;;;;;518926;28;1187;-62
2022/10/31 01:31:23;;;;;;;16.15;8.20;;;;;;;;;;519670;28;1273;-61
2022/10/31 01:31:39;;;;;;;17.00;8.32;;;;;;;;;;518680;28;1270;-61
2022/10/31 01:31:54;;;;;;;17.23;7.90;;;;;;;;;;522439;28;1157;-62
2022/10/31 01:32:09;;;;;;;14.93;8.07;;;;;;;;;;521820;28;1189;-61
2022/10/31 01:32:28;;;;;;;14.47;8.13;;;;;;;;;;522512;28;987;-62
2022/10/31 01:32:43;;;;;;;13.40;7.82;;;;;;;;;;522394;28;1306;-61
2022/10/31 01:32:59;;;;;;;14.37;8.03;;;;;;;;;;521240;28;1733;-62
2022/10/31 01:33:14;;;;;;;14.60;7.90;;;;;;;;;;520492;28;1326;-61
2022/10/31 01:33:29;;;;;;;14.10;7.63;;;;;;;;;;519199;28;1213;-61
2022/10/31 01:33:45;;;;;;;16.13;7.90;;;;;;;;;;519012;28;1158;-61
2022/10/31 01:34:01;;;;;;;15.85;7.80;;;;;;;;;;522167;28;1173;-61
2022/10/31 01:34:17;;;;;;;15.63;7.75;;;;;;;;;;519454;28;1926;-61
2022/10/31 01:34:32;;;;;;;15.68;7.85;;;;;;;;;;520370;28;1199;-61
2022/10/31 01:34:48;;;;;;;15.80;7.93;;;;;;;;;;520260;28;1156;-61
2022/10/31 01:35:03;;;;;;;17.87;8.03;;;;;;;;;;522095;28;1321;-62
2022/10/31 01:35:18;;;;;;;17.65;7.82;;;;;;;;;;520997;28;1300;-62
2022/10/31 01:35:34;;;;;;;15.70;7.80;;;;;;;;;;525488;28;1165;-61
2022/10/31 01:35:49;;;;;;;13.20;7.90;;;;;;;;;;525285;28;1046;-62
2022/10/31 01:36:13;;;;;;;12.68;7.85;;;;;;;;;;523469;28;1381;-61
2022/10/31 01:36:34;;;;;;;12.93;7.53;;;;;;;;;;524366;28;1212;-61
2022/10/31 01:36:51;;;;;;;14.43;7.47;;;;;;;;;;524479;28;1173;-61